Time;durP1;ratioP1;P1;durP2;ratioP2;P2;SDS_P1;SDS_P2;PMS_P1;PMS_P2;Temp;Humidity;BMP_temperature;BMP_pressure;BME280_temperature;BME280_humidity;BME280_pressure;Samples;Min_cycle;Max_cycle;Signal;HPM_P1;HPM_P2
2023/04/18 00:00:51;;;;;;;7.65;2.08;;;20.70;61.70;;;;;;5142395;23;20016;-49
2023/04/18 00:03:14;;;;;;;3.65;1.80;;;20.60;61.50;;;;;;5136970;23;20411;-53
2023/04/18 00:05:37;;;;;;;3.30;1.60;;;20.60;61.40;;;;;;5144428;23;20103;-58
2023/04/18 00:07:59;;;;;;;5.38;1.88;;;20.70;61.40;;;;;;5144374;23;20538;-57
2023/04/18 00:10:22;;;;;;;5.68;2.03;;;20.60;61.30;;;;;;5144521;23;20534;-56
2023/04/18 00:12:44;;;;;;;5.22;2.05;;;20.60;61.20;;;;;;5145744;23;20423;-54
2023/04/18 00:15:08;;;;;;;3.72;1.80;;;20.60;61.10;;;;;;5147284;23;20095;-53
2023/04/18 00:17:31;;;;;;;2.95;1.40;;;20.60;61.20;;;;;;5135873;23;20025;-52
2023/04/18 00:19:55;;;;;;;2.42;1.50;;;20.60;61.10;;;;;;5143614;23;20093;-51
2023/04/18 00:22:21;;;;;;;3.47;1.45;;;20.60;61.10;;;;;;5143640;23;20043;-54
2023/04/18 00:24:43;;;;;;;2.38;1.55;;;20.70;61.10;;;;;;5111021;23;20397;-58
2023/04/18 00:27:06;;;;;;;3.20;1.70;;;20.70;61.00;;;;;;5143801;23;20020;-54
2023/04/18 00:29:30;;;;;;;3.25;1.35;;;20.70;61.10;;;;;;5143114;23;20012;-54
2023/04/18 00:31:53;;;;;;;3.38;1.40;;;20.60;60.90;;;;;;5146904;23;20016;-52
2023/04/18 00:34:15;;;;;;;4.05;1.55;;;20.60;61.00;;;;;;5145632;23;20066;-58
2023/04/18 00:36:37;;;;;;;4.30;1.52;;;20.70;61.10;;;;;;5144573;23;20009;-58
2023/04/18 00:39:00;;;;;;;2.03;1.30;;;20.70;61.00;;;;;;5144327;23;20021;-58
2023/04/18 00:41:27;;;;;;;2.13;1.30;;;20.70;61.00;;;;;;5137171;23;20021;-57
2023/04/18 00:43:49;;;;;;;1.95;1.10;;;20.70;60.90;;;;;;5143010;23;20344;-59
2023/04/18 00:46:11;;;;;;;1.95;1.02;;;20.70;60.90;;;;;;5141672;23;20016;-56
2023/04/18 00:48:34;;;;;;;3.50;1.30;;;20.70;60.90;;;;;;5164005;23;20024;-69
2023/04/18 00:50:59;;;;;;;4.40;1.80;;;20.80;61.10;;;;;;5159380;23;20035;-72
2023/04/18 00:53:21;;;;;;;10.30;1.67;;;20.80;61.30;;;;;;5170109;23;20356;-73
2023/04/18 00:55:44;;;;;;;4.43;1.63;;;20.90;61.50;;;;;;5168247;23;20020;-54
2023/04/18 00:58:07;;;;;;;27.45;2.67;;;20.90;61.40;;;;;;5168593;23;20008;-64
2023/04/18 01:00:29;;;;;;;24.67;3.45;;;21.00;61.50;;;;;;5167234;23;20135;-61
2023/04/18 01:02:52;;;;;;;44.30;4.68;;;21.00;61.50;;;;;;5169733;22;20012;-61
2023/04/18 01:05:15;;;;;;;20.08;2.35;;;21.00;61.70;;;;;;5167687;23;20541;-57
2023/04/18 01:07:41;;;;;;;12.77;2.55;;;21.10;61.80;;;;;;5169076;23;20446;-60
2023/04/18 01:10:04;;;;;;;8.30;1.95;;;21.10;62.00;;;;;;5167634;23;20123;-58
2023/04/18 01:12:26;;;;;;;11.85;2.13;;;21.10;61.90;;;;;;5168698;23;20020;-58
2023/04/18 01:14:49;;;;;;;7.50;2.30;;;21.20;62.00;;;;;;5170375;23;20028;-58
2023/04/18 01:17:12;;;;;;;8.55;2.28;;;21.20;61.90;;;;;;5171774;23;20016;-54
2023/04/18 01:19:34;;;;;;;11.27;1.52;;;21.20;62.00;;;;;;5140596;22;20016;-58
2023/04/18 01:21:56;;;;;;;5.85;1.60;;;21.30;61.80;;;;;;5169636;23;20046;-57
2023/04/18 01:24:19;;;;;;;5.82;1.23;;;21.30;61.80;;;;;;5168768;23;20369;-61
2023/04/18 01:26:43;;;;;;;6.38;1.23;;;21.40;61.90;;;;;;5170074;23;20485;-58
2023/04/18 01:29:06;;;;;;;3.58;1.15;;;21.40;61.80;;;;;;5167563;23;20337;-60
2023/04/18 01:31:28;;;;;;;3.70;0.73;;;21.50;61.90;;;;;;5169360;23;20012;-59
2023/04/18 01:33:51;;;;;;;2.17;0.63;;;21.50;61.70;;;;;;5166769;23;20369;-57
2023/04/18 01:36:13;;;;;;;2.30;0.65;;;21.50;61.70;;;;;;5169857;23;20039;-54
2023/04/18 01:38:35;;;;;;;5.45;1.40;;;21.60;61.70;;;;;;5169805;23;20513;-58
2023/04/18 01:40:58;;;;;;;3.40;0.63;;;21.60;61.60;;;;;;5169192;23;20500;-59
2023/04/18 01:43:20;;;;;;;2.38;0.60;;;21.60;61.70;;;;;;5170569;23;20082;-59
2023/04/18 01:45:43;;;;;;;1.08;0.52;;;21.70;61.70;;;;;;5169721;23;20038;-62
2023/04/18 01:48:05;;;;;;;1.65;0.68;;;21.70;61.70;;;;;;5169406;23;20091;-59
2023/04/18 01:50:28;;;;;;;5.25;0.70;;;21.80;61.60;;;;;;5169878;23;20012;-61
2023/04/18 01:52:50;;;;;;;2.65;0.85;;;21.80;61.60;;;;;;5169432;23;20379;-59
2023/04/18 01:55:12;;;;;;;2.42;0.45;;;21.80;61.60;;;;;;5169500;23;20413;-60
2023/04/18 01:57:38;;;;;;;1.58;0.60;;;21.80;61.60;;;;;;5167689;23;20099;-61
2023/04/18 02:00:00;;;;;;;0.30;0.30;;;21.90;61.60;;;;;;5169141;23;20016;-61
2023/04/18 02:02:23;;;;;;;0.40;0.35;;;21.90;61.50;;;;;;5160247;22;20027;-56
2023/04/18 02:04:45;;;;;;;5.93;0.60;;;21.90;61.60;;;;;;5140482;22;20096;-59
2023/04/18 02:07:07;;;;;;;1.75;0.60;;;21.90;61.80;;;;;;5169414;23;20068;-59
2023/04/18 02:09:30;;;;;;;1.67;0.60;;;22.00;61.70;;;;;;5170348;23;20097;-61
2023/04/18 02:11:55;;;;;;;4.70;0.82;;;22.00;61.60;;;;;;5169960;23;20074;-65
2023/04/18 02:14:17;;;;;;;1.75;0.80;;;22.00;61.60;;;;;;5166022;23;20020;-59
2023/04/18 02:16:40;;;;;;;0.63;0.50;;;22.10;61.60;;;;;;5168457;23;20020;-58
2023/04/18 02:19:03;;;;;;;3.55;0.68;;;22.10;61.70;;;;;;5168994;23;20016;-61
2023/04/18 02:21:25;;;;;;;4.50;1.30;;;22.10;61.60;;;;;;5162935;22;20450;-62
2023/04/18 02:23:48;;;;;;;8.15;0.90;;;22.10;61.30;;;;;;5168903;23;20016;-60
2023/04/18 02:26:10;;;;;;;4.90;1.30;;;22.10;61.30;;;;;;5169644;23;20469;-61
2023/04/18 02:28:33;;;;;;;6.95;1.17;;;22.10;61.30;;;;;;5140155;22;20051;-59
2023/04/18 02:30:55;;;;;;;2.42;0.90;;;22.10;61.40;;;;;;5168244;23;20344;-61
2023/04/18 02:33:17;;;;;;;7.50;1.10;;;22.10;61.40;;;;;;5168553;23;20012;-61
2023/04/18 02:35:40;;;;;;;3.03;0.93;;;22.10;61.40;;;;;;5169395;23;20091;-61
2023/04/18 02:38:02;;;;;;;6.53;0.73;;;22.10;61.40;;;;;;5172102;23;20170;-60
2023/04/18 02:40:25;;;;;;;2.55;1.00;;;22.20;61.40;;;;;;5170402;23;20019;-60
2023/04/18 02:42:47;;;;;;;2.40;0.82;;;22.20;61.30;;;;;;5169806;23;20011;-61
2023/04/18 02:45:10;;;;;;;7.85;1.35;;;22.20;61.20;;;;;;5142608;22;20027;-60
2023/04/18 02:47:32;;;;;;;10.15;1.08;;;22.20;61.20;;;;;;5169834;23;20008;-61
2023/04/18 02:49:55;;;;;;;2.03;0.77;;;22.20;61.20;;;;;;5169240;23;20019;-53
2023/04/18 02:52:17;;;;;;;3.92;1.25;;;22.30;61.20;;;;;;5170998;23;20096;-54
2023/04/18 02:54:40;;;;;;;2.75;1.02;;;22.30;60.80;;;;;;5167210;23;20356;-54
2023/04/18 02:57:02;;;;;;;5.35;1.10;;;22.30;60.60;;;;;;5167039;23;20012;-48
2023/04/18 02:59:24;;;;;;;5.30;1.02;;;22.30;60.60;;;;;;5167264;23;20365;-52
2023/04/18 03:01:47;;;;;;;3.13;0.63;;;22.30;60.70;;;;;;5141341;22;20056;-57
2023/04/18 03:04:10;;;;;;;5.40;1.20;;;22.40;60.40;;;;;;5141712;22;20029;-51
2023/04/18 03:06:32;;;;;;;3.35;1.08;;;22.40;60.60;;;;;;5171435;23;20510;-55
2023/04/18 03:08:55;;;;;;;3.03;1.00;;;22.40;60.60;;;;;;5170767;23;20016;-57
2023/04/18 03:11:17;;;;;;;2.95;1.02;;;22.40;60.80;;;;;;5170626;23;20016;-50
2023/04/18 03:13:40;;;;;;;6.97;1.15;;;22.50;60.90;;;;;;5169836;23;20020;-48
2023/04/18 03:16:02;;;;;;;2.08;0.90;;;22.60;61.20;;;;;;5170719;23;20127;-49
2023/04/18 03:18:24;;;;;;;3.15;1.20;;;22.60;61.10;;;;;;5169498;23;20012;-51
2023/04/18 03:20:47;;;;;;;3.67;0.82;;;22.70;61.20;;;;;;5170802;23;20040;-51
2023/04/18 03:23:09;;;;;;;3.15;0.73;;;22.70;61.00;;;;;;5170948;23;20027;-52
2023/04/18 03:25:33;;;;;;;2.33;0.52;;;22.80;60.80;;;;;;5168517;23;20016;-53
2023/04/18 03:27:55;;;;;;;3.80;0.98;;;22.80;60.40;;;;;;5170624;23;20008;-54
2023/04/18 03:30:18;;;;;;;3.40;0.88;;;22.80;60.60;;;;;;5171069;23;20481;-54
2023/04/18 03:32:40;;;;;;;2.00;0.88;;;22.90;60.60;;;;;;5172132;23;20363;-60
2023/04/18 03:35:03;;;;;;;3.95;1.00;;;22.90;60.60;;;;;;5169316;23;20082;-54
2023/04/18 03:37:25;;;;;;;0.98;0.60;;;22.90;60.60;;;;;;5169606;23;20069;-52
2023/04/18 03:39:48;;;;;;;1.58;0.85;;;22.90;60.50;;;;;;5172209;23;20406;-51
2023/04/18 03:42:10;;;;;;;2.75;1.02;;;22.90;60.60;;;;;;5168910;23;20066;-47
2023/04/18 03:44:33;;;;;;;2.67;0.60;;;22.90;60.60;;;;;;5169229;23;20272;-50
2023/04/18 03:46:56;;;;;;;1.85;0.68;;;23.00;60.60;;;;;;5171567;23;20010;-54
2023/04/18 03:49:18;;;;;;;2.33;1.03;;;23.00;60.70;;;;;;5171922;23;20107;-52
2023/04/18 03:51:48;;;;;;;1.77;0.68;;;23.00;60.90;;;;;;5170187;23;20564;-54
2023/04/18 03:54:10;;;;;;;2.47;0.63;;;23.00;60.90;;;;;;5167309;23;20470;-54
2023/04/18 03:56:33;;;;;;;7.88;0.77;;;23.10;60.80;;;;;;5169072;23;20606;-50
2023/04/18 03:58:55;;;;;;;6.78;1.08;;;23.00;60.90;;;;;;5142800;22;20016;-48
2023/04/18 04:01:18;;;;;;;5.95;1.58;;;23.10;61.00;;;;;;5162864;22;20054;-46
2023/04/18 04:03:40;;;;;;;2.05;1.00;;;23.10;61.70;;;;;;5169424;22;20019;-51
2023/04/18 04:06:02;;;;;;;2.45;0.75;;;23.10;61.00;;;;;;5171194;23;20016;-45
2023/04/18 04:08:25;;;;;;;4.70;0.95;;;23.20;60.90;;;;;;5168840;23;20428;-57
2023/04/18 04:10:47;;;;;;;4.38;1.30;;;23.20;60.70;;;;;;5171165;23;20062;-52
2023/04/18 04:13:10;;;;;;;2.45;0.88;;;23.20;60.80;;;;;;5140513;22;20525;-52
2023/04/18 04:15:32;;;;;;;1.35;0.75;;;23.20;60.90;;;;;;5162999;23;20027;-55
2023/04/18 04:17:55;;;;;;;2.22;0.82;;;23.20;60.80;;;;;;5171463;23;20008;-52
2023/04/18 04:20:22;;;;;;;3.10;0.95;;;23.30;60.90;;;;;;5171564;23;20015;-51
2023/04/18 04:22:45;;;;;;;3.30;1.10;;;23.30;61.00;;;;;;5162906;22;20494;-51
2023/04/18 04:25:09;;;;;;;8.15;1.52;;;23.30;60.90;;;;;;5169210;23;20016;-56
2023/04/18 04:27:32;;;;;;;4.15;1.23;;;23.30;60.70;;;;;;5168462;23;20043;-54
2023/04/18 04:29:55;;;;;;;4.43;1.73;;;23.30;60.60;;;;;;5166407;23;20047;-54
2023/04/18 04:32:19;;;;;;;6.20;2.20;;;23.30;60.70;;;;;;5168192;23;20016;-59
2023/04/18 04:34:41;;;;;;;3.38;2.33;;;23.30;60.70;;;;;;5166432;23;20399;-56
2023/04/18 04:37:03;;;;;;;5.55;2.75;;;23.40;60.70;;;;;;5168636;23;20035;-54
2023/04/18 04:39:26;;;;;;;7.28;4.03;;;23.40;60.70;;;;;;5166457;23;20016;-55
2023/04/18 04:41:49;;;;;;;5.95;5.30;;;23.40;60.70;;;;;;5168172;23;20461;-53
2023/04/18 04:44:11;;;;;;;13.85;7.72;;;23.40;60.70;;;;;;5168924;23;20022;-57
2023/04/18 04:46:34;;;;;;;18.65;11.55;;;23.30;60.70;;;;;;5141745;22;20020;-55
2023/04/18 04:48:57;;;;;;;16.45;12.73;;;23.40;60.90;;;;;;5170905;23;20544;-54
2023/04/18 04:51:19;;;;;;;17.77;14.32;;;23.40;60.80;;;;;;5170497;23;20026;-52
2023/04/18 04:53:41;;;;;;;16.52;15.02;;;23.40;60.70;;;;;;5162588;23;20023;-49
2023/04/18 04:56:04;;;;;;;20.85;17.88;;;23.40;60.70;;;;;;5170653;23;20020;-56
2023/04/18 04:58:27;;;;;;;35.40;19.15;;;23.40;60.70;;;;;;5162508;23;20031;-53
2023/04/18 05:00:51;;;;;;;58.05;52.65;;;23.40;60.60;;;;;;5168007;23;20016;-51
2023/04/18 05:03:13;;;;;;;;;;;23.40;60.40;;;;;;5160018;22;20744;-51
2023/04/18 05:05:36;;;;;;;87.10;79.55;;;23.40;60.40;;;;;;5163605;23;19907;-51
2023/04/18 05:07:58;;;;;;;85.10;77.45;;;23.40;60.40;;;;;;5165576;23;20015;-53
2023/04/18 05:10:21;;;;;;;79.75;72.93;;;23.40;60.50;;;;;;5170402;23;20058;-56
2023/04/18 05:12:43;;;;;;;82.45;75.10;;;23.50;60.40;;;;;;5168873;23;20020;-54
2023/04/18 05:15:06;;;;;;;81.93;74.72;;;23.40;60.30;;;;;;5165716;23;20097;-57
2023/04/18 05:17:29;;;;;;;81.90;75.03;;;23.50;60.40;;;;;;5170614;23;20016;-47
2023/04/18 05:19:52;;;;;;;87.47;80.18;;;23.50;60.60;;;;;;5165430;23;20066;-53
2023/04/18 05:22:14;;;;;;;83.40;75.40;;;23.50;60.50;;;;;;5166936;23;20016;-48
2023/04/18 05:24:37;;;;;;;78.93;72.00;;;23.50;60.70;;;;;;5168016;23;20020;-56
2023/04/18 05:27:00;;;;;;;73.75;67.32;;;23.40;61.00;;;;;;5168248;23;20081;-55
2023/04/18 05:29:22;;;;;;;70.00;63.50;;;23.50;61.40;;;;;;5167279;23;20016;-58
2023/04/18 05:31:45;;;;;;;65.00;59.22;;;23.50;61.60;;;;;;5169072;23;20040;-57
2023/04/18 05:34:07;;;;;;;61.85;56.05;;;23.50;61.60;;;;;;5168956;23;20024;-58
2023/04/18 05:36:30;;;;;;;56.55;51.30;;;23.50;61.60;;;;;;5169199;23;20354;-55
2023/04/18 05:38:53;;;;;;;55.15;50.30;;;23.60;61.30;;;;;;5165739;23;20120;-59
2023/04/18 05:41:15;;;;;;;51.10;46.58;;;23.70;61.50;;;;;;5168270;23;20023;-55
2023/04/18 05:43:38;;;;;;;49.45;45.15;;;23.70;61.60;;;;;;5167889;23;20023;-56
2023/04/18 05:46:00;;;;;;;45.08;41.10;;;23.80;61.60;;;;;;5162019;22;20024;-57
2023/04/18 05:48:23;;;;;;;43.65;39.97;;;23.80;61.50;;;;;;5160044;23;20449;-57
2023/04/18 05:50:46;;;;;;;42.17;38.70;;;23.80;61.40;;;;;;5160153;23;20099;-58
2023/04/18 05:53:08;;;;;;;39.60;36.20;;;23.80;61.20;;;;;;5165177;23;20392;-58
2023/04/18 05:55:31;;;;;;;37.00;33.80;;;23.90;61.30;;;;;;5167922;23;20031;-53
2023/04/18 05:57:53;;;;;;;34.42;31.27;;;23.90;61.30;;;;;;5167265;23;20309;-58
2023/04/18 06:00:16;;;;;;;32.90;29.75;;;23.90;61.20;;;;;;5167869;23;20047;-54
2023/04/18 06:02:38;;;;;;;32.53;28.83;;;23.90;62.00;;;;;;5166110;22;20012;-55
2023/04/18 06:05:01;;;;;;;30.98;28.27;;;24.00;61.30;;;;;;5164718;23;20487;-55
2023/04/18 06:07:24;;;;;;;28.73;26.13;;;24.00;61.20;;;;;;5166573;23;20094;-56
2023/04/18 06:09:48;;;;;;;26.58;24.02;;;24.00;61.80;;;;;;5162389;23;20024;-55
2023/04/18 06:12:10;;;;;;;26.50;23.92;;;24.00;61.30;;;;;;5171006;23;20454;-58
2023/04/18 06:14:33;;;;;;;25.48;23.13;;;24.00;61.30;;;;;;5171420;23;20028;-49
2023/04/18 06:16:55;;;;;;;23.42;21.33;;;24.00;61.20;;;;;;5165888;23;20016;-51
2023/04/18 06:19:18;;;;;;;23.05;20.92;;;24.00;61.10;;;;;;5169554;23;20015;-46
2023/04/18 06:21:41;;;;;;;23.05;20.73;;;24.00;61.50;;;;;;5169527;23;20091;-60
2023/04/18 06:24:04;;;;;;;25.15;22.67;;;24.00;61.20;;;;;;5141985;23;20024;-62
2023/04/18 06:26:27;;;;;;;25.70;23.25;;;24.10;60.90;;;;;;5163307;23;20062;-61
2023/04/18 06:28:49;;;;;;;26.65;24.25;;;24.10;60.80;;;;;;5169441;23;20024;-63
2023/04/18 06:31:12;;;;;;;35.10;31.55;;;24.20;60.50;;;;;;5171961;23;20016;-61
2023/04/18 06:33:37;;;;;;;34.50;31.05;;;24.10;60.10;;;;;;5171341;23;20023;-60
2023/04/18 06:36:00;;;;;;;32.80;30.00;;;24.20;60.00;;;;;;5172631;23;20023;-59
2023/04/18 06:38:22;;;;;;;32.67;29.75;;;24.20;60.10;;;;;;5170482;23;20109;-59
2023/04/18 06:40:45;;;;;;;39.97;27.15;;;24.20;60.10;;;;;;5171675;23;20012;-60
2023/04/18 06:43:07;;;;;;;27.38;24.85;;;24.20;60.10;;;;;;5172632;23;20376;-61
2023/04/18 06:45:32;;;;;;;27.13;24.65;;;24.20;60.20;;;;;;5169597;23;20024;-63
2023/04/18 06:47:55;;;;;;;25.65;23.45;;;24.30;60.20;;;;;;5171951;23;20028;-59
2023/04/18 06:50:17;;;;;;;24.95;22.85;;;24.30;60.10;;;;;;5172816;23;20074;-59
2023/04/18 06:52:43;;;;;;;23.05;21.15;;;24.40;60.20;;;;;;5172822;23;20106;-58
2023/04/18 06:55:07;;;;;;;21.92;20.08;;;24.40;59.90;;;;;;5169697;23;20024;-60
2023/04/18 06:57:28;;;;;;;;;;;24.40;59.90;;;;;;5164153;22;20020;-64
2023/04/18 06:59:51;;;;;;;21.70;18.95;;;24.40;59.90;;;;;;5170755;23;19908;-60
2023/04/18 07:02:14;;;;;;;19.90;18.20;;;24.40;59.80;;;;;;5172944;22;20008;-60
2023/04/18 07:04:36;;;;;;;20.07;18.37;;;24.40;59.80;;;;;;5171624;23;20460;-58
2023/04/18 07:07:00;;;;;;;19.67;17.92;;;24.40;59.90;;;;;;5141685;23;20099;-61
2023/04/18 07:09:22;;;;;;;;;;;24.40;59.90;;;;;;5170014;23;20020;-60
2023/04/18 07:11:44;;;;;;;17.52;15.93;;;24.40;60.00;;;;;;5168897;23;19907;-60
2023/04/18 07:14:07;;;;;;;17.35;15.75;;;24.30;60.10;;;;;;5169724;23;20104;-58
2023/04/18 07:16:29;;;;;;;16.98;15.52;;;24.30;60.10;;;;;;5169567;23;20020;-61
2023/04/18 07:18:51;;;;;;;17.13;15.52;;;24.30;60.20;;;;;;5168914;23;20016;-59
2023/04/18 07:21:14;;;;;;;16.23;14.73;;;24.30;60.10;;;;;;5139207;23;20063;-60
2023/04/18 07:23:37;;;;;;;15.40;14.10;;;24.30;60.20;;;;;;5140309;23;20024;-60
2023/04/18 07:26:01;;;;;;;15.13;13.73;;;24.20;59.90;;;;;;5162124;22;20027;-61
2023/04/18 07:28:23;;;;;;;14.73;13.43;;;24.20;59.80;;;;;;5170510;23;20453;-60
2023/04/18 07:30:47;;;;;;;14.10;12.80;;;24.20;59.70;;;;;;5170524;23;20019;-60
2023/04/18 07:33:09;;;;;;;12.15;11.05;;;24.20;59.70;;;;;;5170034;23;20085;-60
2023/04/18 07:35:31;;;;;;;13.07;11.80;;;24.20;59.60;;;;;;5169413;23;20024;-64
2023/04/18 07:37:54;;;;;;;12.23;11.02;;;24.20;59.60;;;;;;5170625;23;20101;-61
2023/04/18 07:40:16;;;;;;;10.88;9.82;;;24.20;59.60;;;;;;5168182;23;20016;-66
2023/04/18 07:42:39;;;;;;;10.23;9.32;;;24.10;59.70;;;;;;5168963;23;20020;-62
2023/04/18 07:45:02;;;;;;;12.02;9.50;;;24.10;59.90;;;;;;5164966;23;20020;-62
2023/04/18 07:47:26;;;;;;;9.90;8.75;;;24.10;60.00;;;;;;5165292;23;20527;-65
2023/04/18 07:49:48;;;;;;;10.02;8.00;;;24.10;60.20;;;;;;5134928;23;20048;-65
2023/04/18 07:52:11;;;;;;;9.82;7.35;;;24.10;60.30;;;;;;5167789;23;20147;-61
2023/04/18 07:54:33;;;;;;;7.72;7.03;;;24.10;60.40;;;;;;5161053;22;20098;-65
2023/04/18 07:56:55;;;;;;;7.45;6.75;;;24.10;60.50;;;;;;5166004;23;20473;-67
2023/04/18 07:59:18;;;;;;;7.20;6.35;;;24.10;60.50;;;;;;5166325;23;20016;-64
2023/04/18 08:01:40;;;;;;;7.22;6.22;;;24.10;60.50;;;;;;5168534;23;20390;-64
2023/04/18 08:04:03;;;;;;;9.23;6.65;;;24.10;60.70;;;;;;5166987;23;20008;-66
2023/04/18 08:06:25;;;;;;;9.25;5.70;;;24.10;60.70;;;;;;5159419;22;20020;-64
2023/04/18 08:08:48;;;;;;;11.57;5.20;;;24.10;60.70;;;;;;5160046;23;20065;-64
2023/04/18 08:11:10;;;;;;;6.60;5.43;;;24.10;60.80;;;;;;5167670;23;20457;-63
2023/04/18 08:13:33;;;;;;;7.93;5.40;;;24.10;60.80;;;;;;5167818;23;20008;-63
2023/04/18 08:15:58;;;;;;;16.13;4.97;;;24.10;60.90;;;;;;5143165;23;20413;-63
2023/04/18 08:18:22;;;;;;;8.98;4.47;;;24.00;60.90;;;;;;5160311;22;20065;-65
2023/04/18 08:20:44;;;;;;;7.63;4.50;;;24.10;61.10;;;;;;5156471;23;20105;-66
2023/04/18 08:23:07;;;;;;;9.05;3.88;;;24.00;61.30;;;;;;5162575;22;20016;-70
2023/04/18 08:25:30;;;;;;;4.90;3.90;;;24.00;61.30;;;;;;5169262;23;20016;-67
2023/04/18 08:27:52;;;;;;;9.20;4.50;;;24.00;62.30;;;;;;5160041;22;20468;-64
2023/04/18 08:30:15;;;;;;;16.98;4.30;;;24.00;61.60;;;;;;5169994;23;20015;-66
2023/04/18 08:32:38;;;;;;;4.05;3.65;;;24.00;61.80;;;;;;5170720;23;20111;-67
2023/04/18 08:35:00;;;;;;;4.93;3.40;;;24.00;61.80;;;;;;5138477;23;20031;-67
2023/04/18 08:37:23;;;;;;;7.47;3.20;;;24.00;61.90;;;;;;5170591;23;20016;-67
2023/04/18 08:39:45;;;;;;;5.53;3.15;;;23.90;61.50;;;;;;5168842;23;20445;-63
2023/04/18 08:42:10;;;;;;;9.48;4.18;;;23.90;61.60;;;;;;5165296;23;20008;-61
2023/04/18 08:44:34;;;;;;;7.88;4.40;;;23.90;61.80;;;;;;5167455;23;20472;-59
2023/04/18 08:46:56;;;;;;;;;;;23.90;60.60;;;;;;5159731;23;20020;-60
2023/04/18 08:49:22;;;;;;;17.45;4.93;;;23.90;61.00;;;;;;5168118;23;19915;-63
2023/04/18 08:51:50;;;;;;;9.10;4.38;;;23.80;60.80;;;;;;5167946;23;20019;-62
2023/04/18 08:54:14;;;;;;;6.00;4.07;;;23.80;59.90;;;;;;5161899;23;20024;-62
2023/04/18 08:56:36;;;;;;;6.18;3.70;;;23.80;59.50;;;;;;5161537;23;20016;-63
2023/04/18 08:58:59;;;;;;;6.90;3.40;;;23.80;59.50;;;;;;5162363;23;20026;-62
2023/04/18 09:01:21;;;;;;;4.72;3.13;;;23.70;59.50;;;;;;5159353;23;20071;-62
2023/04/18 09:03:44;;;;;;;5.32;3.05;;;23.70;59.50;;;;;;5161438;22;20066;-64
2023/04/18 09:06:15;;;;;;;5.10;3.15;;;23.60;59.50;;;;;;5159917;23;20020;-63
2023/04/18 09:08:37;;;;;;;5.82;3.40;;;23.60;59.60;;;;;;5158926;23;20016;-63
2023/04/18 09:11:27;;;;;;;4.10;2.83;;;23.60;59.60;;;;;;5153908;22;20020;-62
2023/04/18 09:13:50;;;;;;;5.70;3.30;;;23.50;59.70;;;;;;5161193;23;20023;-63
2023/04/18 09:16:13;;;;;;;5.00;2.83;;;23.50;59.80;;;;;;5166404;23;20015;-63
2023/04/18 09:18:35;;;;;;;6.00;3.00;;;23.40;59.80;;;;;;5163807;23;20012;-63
2023/04/18 09:21:18;;;;;;;3.30;2.80;;;23.40;59.80;;;;;;5167646;23;20099;-62
2023/04/18 09:23:41;;;;;;;3.80;2.65;;;23.40;60.00;;;;;;5170055;23;20197;-63
2023/04/18 09:26:04;;;;;;;4.20;2.50;;;23.40;60.00;;;;;;5168146;23;20020;-63
2023/04/18 09:28:30;;;;;;;4.80;2.50;;;23.30;60.00;;;;;;5162520;23;20012;-63
2023/04/18 09:30:53;;;;;;;4.70;2.53;;;23.30;60.00;;;;;;5163051;23;20123;-63
2023/04/18 09:33:16;;;;;;;5.88;2.83;;;23.30;60.00;;;;;;5164240;23;20012;-62
2023/04/18 09:35:39;;;;;;;4.67;2.60;;;23.30;60.10;;;;;;5153186;23;20127;-63
2023/04/18 09:38:02;;;;;;;5.97;2.70;;;23.20;60.10;;;;;;5163026;23;20603;-63
2023/04/18 09:40:25;;;;;;;4.72;2.75;;;23.20;60.20;;;;;;5163743;23;20123;-63
2023/04/18 09:42:48;;;;;;;4.15;2.72;;;23.20;60.20;;;;;;5161431;23;20040;-63
2023/04/18 09:45:11;;;;;;;4.22;2.40;;;23.20;60.20;;;;;;5163264;23;20027;-64
2023/04/18 09:47:35;;;;;;;;;;;23.10;60.20;;;;;;5163486;22;20031;-64
2023/04/18 09:49:57;;;;;;;5.10;2.63;;;23.10;60.30;;;;;;5161926;23;19914;-64
2023/04/18 09:52:20;;;;;;;4.78;2.30;;;23.10;60.30;;;;;;5162977;23;20055;-64
2023/04/18 09:54:44;;;;;;;5.40;2.70;;;23.10;60.30;;;;;;5161409;23;20030;-63
2023/04/18 09:57:12;;;;;;;6.22;2.95;;;23.10;60.30;;;;;;5163021;23;20425;-65
2023/04/18 09:59:42;;;;;;;4.20;2.92;;;23.00;60.30;;;;;;5161032;23;20035;-61
2023/04/18 10:02:08;;;;;;;3.40;2.30;;;23.00;60.40;;;;;;5162551;22;20012;-62
2023/04/18 10:04:31;;;;;;;5.97;2.83;;;23.00;60.40;;;;;;5163743;23;20015;-63
2023/04/18 10:06:54;;;;;;;4.97;2.57;;;22.90;60.40;;;;;;5163173;23;20065;-63
2023/04/18 10:09:17;;;;;;;5.38;2.60;;;23.00;60.50;;;;;;5163550;23;20023;-64
2023/04/18 10:11:40;;;;;;;4.47;2.63;;;22.90;60.40;;;;;;5160116;23;20706;-63
2023/04/18 10:14:09;;;;;;;4.40;2.38;;;22.90;60.50;;;;;;5163124;23;20031;-63
2023/04/18 10:16:31;;;;;;;4.22;2.08;;;22.90;60.50;;;;;;5163651;23;20020;-64
2023/04/18 10:18:55;;;;;;;3.67;2.35;;;22.90;60.60;;;;;;5130172;23;20013;-63
2023/04/18 10:21:17;;;;;;;4.07;2.55;;;22.90;60.60;;;;;;5155444;22;20016;-64
2023/04/18 10:23:40;;;;;;;5.13;2.42;;;22.90;60.60;;;;;;5164665;23;20091;-63
2023/04/18 10:26:07;;;;;;;6.28;2.10;;;22.80;60.50;;;;;;5163301;23;20012;-64
2023/04/18 10:28:59;;;;;;;4.43;2.10;;;22.80;60.50;;;;;;5162834;23;20077;-63
2023/04/18 10:31:26;;;;;;;3.78;2.25;;;22.80;60.60;;;;;;5153365;23;20335;-64
2023/04/18 10:33:59;;;;;;;4.95;2.33;;;22.80;60.60;;;;;;5162927;23;20524;-62
2023/04/18 10:36:21;;;;;;;3.95;2.53;;;22.70;60.50;;;;;;5163344;23;20023;-63
2023/04/18 10:38:55;;;;;;;4.20;2.33;;;22.70;60.60;;;;;;5162229;23;20134;-63
2023/04/18 10:41:21;;;;;;;4.65;2.17;;;22.70;60.60;;;;;;5162627;23;20658;-63
2023/04/18 10:44:16;;;;;;;5.60;2.30;;;22.70;60.60;;;;;;5156164;22;20023;-62
2023/04/18 10:46:40;;;;;;;3.35;1.88;;;22.70;60.60;;;;;;5155516;23;20043;-63
2023/04/18 10:49:19;;;;;;;3.28;1.98;;;22.70;60.70;;;;;;5162917;23;20028;-63
2023/04/18 10:51:46;;;;;;;5.93;2.17;;;22.60;60.60;;;;;;5152621;23;20469;-63
2023/04/18 10:54:11;;;;;;;3.83;2.10;;;22.60;60.70;;;;;;5163334;23;20024;-63
2023/04/18 10:56:33;;;;;;;4.18;2.22;;;22.60;60.70;;;;;;5166288;23;20054;-63
2023/04/18 10:59:02;;;;;;;4.60;2.42;;;22.60;60.70;;;;;;5165304;23;20016;-64
2023/04/18 11:01:27;;;;;;;3.90;2.03;;;22.60;60.70;;;;;;5164660;23;20043;-62
2023/04/18 11:03:50;;;;;;;3.88;1.95;;;22.60;60.70;;;;;;5164745;22;20335;-63
2023/04/18 11:06:12;;;;;;;3.80;2.05;;;22.50;60.70;;;;;;5164783;23;20485;-63
2023/04/18 11:08:35;;;;;;;4.97;2.33;;;22.60;60.70;;;;;;5165690;23;20016;-63
2023/04/18 11:11:02;;;;;;;3.83;1.90;;;22.50;60.80;;;;;;5164052;23;20039;-64
2023/04/18 11:13:25;;;;;;;3.90;2.10;;;22.50;60.90;;;;;;5157369;22;20422;-64
2023/04/18 11:15:47;;;;;;;3.65;2.00;;;22.50;60.80;;;;;;5165303;23;20099;-64
2023/04/18 11:18:10;;;;;;;3.00;1.90;;;22.50;60.90;;;;;;5163841;23;20020;-64
2023/04/18 11:20:45;;;;;;;4.38;1.83;;;22.50;60.80;;;;;;5164287;23;20091;-63
2023/04/18 11:23:23;;;;;;;3.88;1.85;;;22.40;60.90;;;;;;5157026;23;20043;-63
2023/04/18 11:25:49;;;;;;;4.47;2.08;;;22.50;60.90;;;;;;5162856;23;20016;-63
2023/04/18 11:28:15;;;;;;;4.15;2.00;;;22.40;61.00;;;;;;5162522;23;20008;-64
2023/04/18 11:30:40;;;;;;;3.70;1.75;;;22.40;61.00;;;;;;5157064;22;20074;-65
2023/04/18 11:33:07;;;;;;;3.90;2.03;;;22.30;61.10;;;;;;5164040;23;20402;-64
2023/04/18 11:35:30;;;;;;;3.22;1.77;;;22.30;60.90;;;;;;5136079;22;20100;-64
2023/04/18 11:37:54;;;;;;;4.32;2.10;;;22.30;61.00;;;;;;5163768;23;20397;-64
2023/04/18 11:40:17;;;;;;;4.05;2.03;;;22.40;61.00;;;;;;5163913;23;20399;-64
2023/04/18 11:42:40;;;;;;;3.20;1.55;;;22.30;61.00;;;;;;5163948;23;20016;-64
2023/04/18 11:45:03;;;;;;;3.58;2.05;;;22.30;61.70;;;;;;5163578;23;20374;-65
2023/04/18 11:47:33;;;;;;;2.53;1.70;;;22.30;61.00;;;;;;5163338;23;20023;-64
2023/04/18 11:50:01;;;;;;;4.57;1.80;;;22.30;61.10;;;;;;5162991;23;20098;-64
2023/04/18 11:52:25;;;;;;;4.15;1.90;;;22.20;61.00;;;;;;5153422;23;20016;-65
2023/04/18 11:54:47;;;;;;;4.88;2.28;;;22.20;61.10;;;;;;5164496;23;20028;-64
2023/04/18 11:57:26;;;;;;;3.85;1.75;;;22.20;61.20;;;;;;5164787;23;20016;-65
2023/04/18 11:59:50;;;;;;;3.08;1.70;;;22.20;61.20;;;;;;5152478;23;20020;-65
2023/04/18 12:02:12;;;;;;;;;;;22.20;61.40;;;;;;5165236;22;20043;-65
2023/04/18 12:04:59;;;;;;;3.55;2.15;;;22.20;61.50;;;;;;5163318;23;20375;-64
2023/04/18 12:07:38;;;;;;;2.90;1.63;;;22.10;61.30;;;;;;5163804;23;20015;-67
2023/04/18 12:10:01;;;;;;;6.18;2.05;;;22.10;61.30;;;;;;5163972;23;20015;-66
2023/04/18 12:12:24;;;;;;;5.00;1.70;;;22.10;61.60;;;;;;5164810;23;20047;-70
2023/04/18 12:14:47;;;;;;;4.65;1.73;;;22.10;61.70;;;;;;5164325;23;20406;-64
2023/04/18 12:17:11;;;;;;;11.32;3.03;;;22.10;61.70;;;;;;5163540;23;20060;-70
2023/04/18 12:19:34;;;;;;;4.53;1.90;;;22.10;61.80;;;;;;5165264;23;20517;-70
2023/04/18 12:22:01;;;;;;;8.20;2.10;;;22.10;61.90;;;;;;5164491;23;20421;-71
2023/04/18 12:24:24;;;;;;;6.80;1.50;;;22.10;62.80;;;;;;5157135;22;20110;-68